createdAt,value
2022-10-17T00:02:08.203Z,4.30
2022-10-17T00:04:38.539Z,6.00
2022-10-17T00:07:08.284Z,5.60
2022-10-17T00:09:38.091Z,5.18
2022-10-17T00:12:08.045Z,4.85
2022-10-17T00:14:38.778Z,7.30
2022-10-17T00:17:10.063Z,7.43
2022-10-17T00:19:40.668Z,6.82
2022-10-17T00:22:10.657Z,7.32
2022-10-17T00:24:41.020Z,3.38
2022-10-17T00:27:31.163Z,5.45
2022-10-17T00:30:01.696Z,4.63
2022-10-17T00:32:31.694Z,4.45
2022-10-17T00:35:01.780Z,5.90
2022-10-17T00:37:35.384Z,4.78
2022-10-17T00:40:07.447Z,7.30
2022-10-17T00:42:37.544Z,5.32
2022-10-17T00:45:11.272Z,5.15
2022-10-17T00:47:42.429Z,4.18
2022-10-17T00:50:14.106Z,6.55
2022-10-17T00:52:44.939Z,4.75
2022-10-17T00:55:30.631Z,5.85
2022-10-17T00:58:03.621Z,4.75
2022-10-17T01:00:34.237Z,6.78
2022-10-17T01:03:04.514Z,5.70
2022-10-17T01:05:34.618Z,6.72
2022-10-17T01:08:05.467Z,6.07
2022-10-17T01:11:02.482Z,4.35
2022-10-17T01:14:07.083Z,6.88
2022-10-17T01:17:00.297Z,6.55
2022-10-17T01:19:58.618Z,7.95
2022-10-17T01:22:40.034Z,5.97
2022-10-17T01:25:19.963Z,6.20
2022-10-17T01:28:11.842Z,4.95
2022-10-17T01:30:57.229Z,5.13
2022-10-17T01:34:04.684Z,5.15
2022-10-17T01:37:00.930Z,7.22
2022-10-17T01:39:55.344Z,7.63
2022-10-17T01:42:34.087Z,4.90
2022-10-17T01:45:24.703Z,7.72
2022-10-17T01:47:57.749Z,7.38
2022-10-17T01:50:44.530Z,5.18
2022-10-17T01:53:23.928Z,5.95
2022-10-17T01:58:42.368Z,6.53
2022-10-17T02:01:14.090Z,5.82
2022-10-17T02:03:47.126Z,6.35
2022-10-17T02:06:18.228Z,5.10
2022-10-17T02:08:51.434Z,5.55
2022-10-17T02:11:26.542Z,5.55
2022-10-17T02:14:15.471Z,8.13
2022-10-17T02:17:14.684Z,5.93
2022-10-17T02:20:12.334Z,7.57
2022-10-17T02:22:51.163Z,8.38
2022-10-17T02:25:39.251Z,4.95
2022-10-17T02:28:36.334Z,5.45
2022-10-17T02:31:17.423Z,5.53
2022-10-17T02:34:04.263Z,6.10
2022-10-17T02:36:40.836Z,5.90
2022-10-17T02:39:13.335Z,7.03
2022-10-17T02:41:46.017Z,6.68
2022-10-17T02:44:17.222Z,6.00
2022-10-17T02:46:54.159Z,7.03
2022-10-17T02:49:33.493Z,5.20
2022-10-17T02:52:22.258Z,5.88
2022-10-17T02:55:05.674Z,6.40
2022-10-17T02:57:41.182Z,5.47
2022-10-17T03:00:15.104Z,7.00
2022-10-17T03:02:48.470Z,5.13
2022-10-17T03:05:27.786Z,6.53
2022-10-17T03:07:59.531Z,8.20
2022-10-17T03:10:31.847Z,6.90
2022-10-17T03:13:02.272Z,5.30
2022-10-17T03:15:33.582Z,6.40
2022-10-17T03:18:03.742Z,5.25
2022-10-17T03:20:34.351Z,12.20
2022-10-17T03:23:04.600Z,6.53
2022-10-17T03:25:34.778Z,5.70
2022-10-17T03:28:06.603Z,10.18
2022-10-17T03:30:37.054Z,5.95
2022-10-17T03:33:07.892Z,7.50
2022-10-17T03:35:41.453Z,9.07
2022-10-17T03:38:12.422Z,7.28
2022-10-17T03:40:42.834Z,7.32
2022-10-17T03:43:13.067Z,6.88
2022-10-17T03:45:43.991Z,5.90
2022-10-17T03:48:13.998Z,4.75
2022-10-17T03:50:43.914Z,4.65
2022-10-17T03:53:14.393Z,6.07
2022-10-17T03:55:44.492Z,5.88
2022-10-17T03:58:14.302Z,5.88
2022-10-17T04:00:44.198Z,7.00
2022-10-17T04:03:17.102Z,4.80
2022-10-17T04:05:47.467Z,8.43
2022-10-17T04:08:17.874Z,6.85
2022-10-17T04:11:09.543Z,5.05
2022-10-17T04:13:40.347Z,5.22
2022-10-17T04:16:16.861Z,9.63
2022-10-17T04:19:00.234Z,6.72
2022-10-17T04:21:34.416Z,5.25
2022-10-17T04:24:11.344Z,10.18
2022-10-17T04:26:56.173Z,8.30
2022-10-17T04:29:29.687Z,9.30
2022-10-17T04:32:09.387Z,6.68
2022-10-17T04:34:52.990Z,6.43
2022-10-17T04:37:26.131Z,7.38
2022-10-17T04:39:57.301Z,6.38
2022-10-17T04:42:27.572Z,6.45
2022-10-17T04:44:57.857Z,8.98
2022-10-17T04:47:29.290Z,11.60
2022-10-17T04:50:00.358Z,4.75
2022-10-17T04:52:36.292Z,5.50
2022-10-17T04:55:07.836Z,7.47
2022-10-17T04:57:38.997Z,5.80
2022-10-17T05:00:22.009Z,8.00
2022-10-17T05:02:52.451Z,10.50
2022-10-17T05:05:22.938Z,5.07
2022-10-17T05:07:55.859Z,8.43
2022-10-17T05:10:29.936Z,9.05
2022-10-17T05:13:01.512Z,8.05
2022-10-17T05:15:34.676Z,6.95
2022-10-17T05:18:07.295Z,7.05
2022-10-17T05:20:38.654Z,9.10
2022-10-17T05:23:09.757Z,10.00
2022-10-17T05:25:43.568Z,7.75
2022-10-17T05:28:14.219Z,9.95
2022-10-17T05:30:46.026Z,5.75
2022-10-17T05:33:16.617Z,7.18
2022-10-17T05:35:47.992Z,9.00
2022-10-17T05:38:18.555Z,6.30
2022-10-17T05:40:50.071Z,7.88
2022-10-17T05:43:21.215Z,8.45
2022-10-17T05:45:51.479Z,7.20
2022-10-17T05:48:24.309Z,8.00
2022-10-17T05:51:02.762Z,11.38
2022-10-17T05:53:35.472Z,5.88
2022-10-17T05:56:11.196Z,9.02
2022-10-17T05:58:51.562Z,8.43
2022-10-17T06:01:37.187Z,8.48
2022-10-17T06:04:08.172Z,10.75
2022-10-17T06:09:10.743Z,7.53
2022-10-17T06:11:44.993Z,7.32
2022-10-17T06:14:15.855Z,10.23
2022-10-17T06:16:45.977Z,8.13
2022-10-17T06:19:15.819Z,10.30
2022-10-17T06:21:46.099Z,8.90
2022-10-17T06:24:17.889Z,8.68
2022-10-17T06:26:48.878Z,6.47
2022-10-17T06:29:19.737Z,9.40
2022-10-17T06:31:53.465Z,8.70
2022-10-17T06:34:23.791Z,8.27
2022-10-17T06:39:34.792Z,13.35
2022-10-17T06:42:09.380Z,11.82
2022-10-17T06:44:57.998Z,12.27
2022-10-17T06:47:46.083Z,11.43
2022-10-17T06:50:37.529Z,8.77
2022-10-17T06:53:14.415Z,10.10
2022-10-17T06:55:55.199Z,12.10
2022-10-17T06:58:48.802Z,7.57
2022-10-17T07:01:34.199Z,7.72
2022-10-17T07:04:06.615Z,7.63
2022-10-17T07:06:37.020Z,7.53
2022-10-17T07:09:20.428Z,7.70
2022-10-17T07:11:51.074Z,9.50
2022-10-17T07:14:21.870Z,10.40
2022-10-17T07:16:53.110Z,9.90
2022-10-17T07:19:28.219Z,7.68
2022-10-17T07:21:58.783Z,8.27
2022-10-17T07:24:29.750Z,11.75
2022-10-17T07:27:11.012Z,9.68
2022-10-17T07:29:41.094Z,8.07
2022-10-17T07:32:20.484Z,9.63
2022-10-17T07:34:51.113Z,13.88
2022-10-17T07:37:21.327Z,10.55
2022-10-17T07:39:57.693Z,12.05
2022-10-17T07:42:29.708Z,10.32
2022-10-17T07:45:01.206Z,10.85
2022-10-17T07:47:36.978Z,9.35
2022-10-17T07:50:10.150Z,9.80
2022-10-17T07:52:40.990Z,9.13
2022-10-17T07:55:11.750Z,11.68
2022-10-17T07:57:41.528Z,6.13
2022-10-17T08:00:11.669Z,7.50
2022-10-17T08:02:44.429Z,7.45
2022-10-17T08:05:15.109Z,8.32
2022-10-17T08:07:45.334Z,7.57
2022-10-17T08:10:16.554Z,10.70
2022-10-17T08:12:46.833Z,9.07
2022-10-17T08:15:16.650Z,8.77
2022-10-17T08:17:46.362Z,13.52
2022-10-17T08:20:17.663Z,7.95
2022-10-17T08:22:54.679Z,9.15
2022-10-17T08:25:25.344Z,10.27
2022-10-17T08:27:55.458Z,9.00
2022-10-17T08:30:25.300Z,10.88
2022-10-17T08:32:57.177Z,9.65
2022-10-17T08:35:28.434Z,8.85
2022-10-17T08:38:02.867Z,9.20
2022-10-17T08:40:37.525Z,5.80
2022-10-17T08:43:47.632Z,7.10
2022-10-17T08:46:18.163Z,9.60
2022-10-17T08:48:51.090Z,7.68
2022-10-17T08:51:30.364Z,6.95
2022-10-17T08:54:07.222Z,13.98
2022-10-17T08:56:49.585Z,11.98
2022-10-17T08:59:28.165Z,7.70
2022-10-17T09:02:23.862Z,11.32
2022-10-17T09:05:25.517Z,8.00
2022-10-17T09:08:10.242Z,8.13
2022-10-17T09:11:07.463Z,6.53
2022-10-17T09:13:54.969Z,9.57
2022-10-17T09:16:35.197Z,5.95
2022-10-17T09:19:09.591Z,5.70
2022-10-17T09:21:42.643Z,10.13
2022-10-17T09:24:26.505Z,7.47
2022-10-17T09:26:57.983Z,12.85
2022-10-17T09:29:35.335Z,10.90
2022-10-17T09:32:21.094Z,8.50
2022-10-17T09:34:51.434Z,10.90
2022-10-17T09:37:33.852Z,7.40
2022-10-17T09:40:04.136Z,10.10
2022-10-17T09:42:35.970Z,9.65
2022-10-17T09:45:26.087Z,8.65
2022-10-17T09:48:26.925Z,6.10
2022-10-17T09:51:14.828Z,10.48
2022-10-17T09:56:28.821Z,8.05
2022-10-17T09:59:00.403Z,15.50
2022-10-17T10:01:32.652Z,9.75
2022-10-17T10:04:14.254Z,9.13
2022-10-17T10:07:05.859Z,11.38
2022-10-17T10:09:39.631Z,13.32
2022-10-17T10:12:38.581Z,11.55
2022-10-17T10:15:34.910Z,14.90
2022-10-17T10:18:27.028Z,17.58
2022-10-17T10:21:16.968Z,16.60
2022-10-17T10:24:04.722Z,15.15
2022-10-17T10:26:40.848Z,15.95
2022-10-17T10:29:33.338Z,13.77
2022-10-17T10:32:26.671Z,15.05
2022-10-17T10:35:07.080Z,11.65
2022-10-17T10:37:51.672Z,11.15
2022-10-17T10:40:32.248Z,15.63
2022-10-17T10:43:05.561Z,15.15
2022-10-17T10:45:53.626Z,18.35
2022-10-17T10:48:37.840Z,20.02
2022-10-17T10:51:20.347Z,23.73
2022-10-17T10:54:06.358Z,26.40
2022-10-17T10:56:39.417Z,30.75
2022-10-17T10:59:24.460Z,30.52
2022-10-17T11:02:13.443Z,34.25
2022-10-17T11:04:57.001Z,39.72
2022-10-17T11:07:45.860Z,37.83
2022-10-17T11:10:26.743Z,47.42
2022-10-17T11:13:19.631Z,44.13
2022-10-17T11:15:52.553Z,42.08
2022-10-17T11:18:36.641Z,48.88
2022-10-17T11:21:18.104Z,51.90
2022-10-17T11:24:09.045Z,41.83
2022-10-17T11:26:46.818Z,48.05
2022-10-17T11:29:17.399Z,47.88
2022-10-17T11:31:51.993Z,44.25
2022-10-17T11:34:31.031Z,49.45
2022-10-17T11:37:23.968Z,48.75
2022-10-17T11:40:01.691Z,43.10
2022-10-17T11:42:52.027Z,51.88
2022-10-17T11:45:25.030Z,43.88
2022-10-17T11:48:03.381Z,43.88
2022-10-17T11:53:33.173Z,48.00
2022-10-17T11:56:04.443Z,42.80
2022-10-17T11:58:41.979Z,42.75
2022-10-17T12:01:17.701Z,41.50
2022-10-17T12:04:00.584Z,41.75
2022-10-17T12:06:56.954Z,42.67
2022-10-17T12:09:33.319Z,38.95
2022-10-17T12:12:05.235Z,42.00
2022-10-17T12:14:47.779Z,40.60
2022-10-17T12:17:33.876Z,40.85
2022-10-17T12:20:25.482Z,39.55
2022-10-17T12:22:58.119Z,40.83
2022-10-17T12:25:34.791Z,41.80
2022-10-17T12:28:27.207Z,44.38
2022-10-17T12:31:14.768Z,43.75
2022-10-17T12:33:57.608Z,37.25
2022-10-17T12:36:30.410Z,45.85
2022-10-17T12:39:04.359Z,36.25
2022-10-17T12:41:41.294Z,40.20
2022-10-17T12:44:17.215Z,53.13
2022-10-17T12:47:02.657Z,32.08
2022-10-17T12:49:45.290Z,30.15
2022-10-17T12:52:22.843Z,28.25
2022-10-17T12:55:13.451Z,22.48
2022-10-17T12:58:01.725Z,17.42
2022-10-17T13:01:24.195Z,15.57
2022-10-17T13:03:55.263Z,15.27
2022-10-17T13:06:31.235Z,12.75
2022-10-17T13:09:06.026Z,12.40
2022-10-17T13:11:39.212Z,11.07
2022-10-17T13:14:15.504Z,14.07
2022-10-17T13:16:55.729Z,12.60
2022-10-17T13:19:28.173Z,11.55
2022-10-17T13:22:07.139Z,16.05
2022-10-17T13:24:42.604Z,11.95
2022-10-17T13:27:33.653Z,13.45
2022-10-17T13:30:24.011Z,15.07
2022-10-17T13:32:56.249Z,12.18
2022-10-17T13:35:58.830Z,12.48
2022-10-17T13:38:29.979Z,12.73
2022-10-17T13:41:16.886Z,11.05
2022-10-17T13:43:52.645Z,9.27
2022-10-17T13:46:39.017Z,8.98
2022-10-17T13:49:26.020Z,10.02
2022-10-17T13:51:59.355Z,8.05
2022-10-17T13:54:44.388Z,7.22
2022-10-17T13:57:27.755Z,9.35
2022-10-17T14:00:14.062Z,11.60
2022-10-17T14:02:44.060Z,8.80
2022-10-17T14:05:20.371Z,9.30
2022-10-17T14:08:15.279Z,6.55
2022-10-17T14:13:26.109Z,8.88
2022-10-17T14:15:59.018Z,10.50
2022-10-17T14:18:36.551Z,7.90
2022-10-17T14:24:31.416Z,9.27
2022-10-17T14:27:02.204Z,8.90
2022-10-17T14:29:35.534Z,8.70
2022-10-17T14:32:14.043Z,8.00
2022-10-17T14:37:33.546Z,5.75
2022-10-17T14:40:08.314Z,4.88
2022-10-17T14:42:42.226Z,6.90
2022-10-17T14:45:25.305Z,5.40
2022-10-17T14:47:59.076Z,4.70
2022-10-17T14:50:32.470Z,4.38
2022-10-17T14:53:08.449Z,3.63
2022-10-17T14:55:40.007Z,5.65
2022-10-17T14:58:39.149Z,4.75
2022-10-17T15:01:09.502Z,4.00
2022-10-17T15:03:39.629Z,3.30
2022-10-17T15:06:24.927Z,2.38
2022-10-17T15:08:55.204Z,3.45
2022-10-17T15:11:25.567Z,4.13
2022-10-17T15:13:55.709Z,3.70
2022-10-17T15:16:27.710Z,3.35
2022-10-17T15:18:58.185Z,3.58
2022-10-17T15:21:39.266Z,5.53
2022-10-17T15:24:12.048Z,4.35
2022-10-17T15:26:42.329Z,4.22
2022-10-17T15:29:17.400Z,2.72
2022-10-17T15:31:47.583Z,5.43
2022-10-17T15:34:17.502Z,4.55
2022-10-17T15:36:55.973Z,5.38
2022-10-17T15:39:26.711Z,4.00
2022-10-17T15:41:56.891Z,5.07
2022-10-17T15:44:26.675Z,7.10
2022-10-17T15:46:58.405Z,4.45
2022-10-17T15:49:29.541Z,4.18
2022-10-17T15:52:01.443Z,4.72
2022-10-17T15:54:31.966Z,4.90
2022-10-17T15:57:01.912Z,3.75
2022-10-17T15:59:35.695Z,6.32
2022-10-17T16:02:06.945Z,3.55
2022-10-17T16:04:37.498Z,4.78
2022-10-17T16:07:08.381Z,3.83
2022-10-17T16:09:38.947Z,3.63
2022-10-17T16:12:15.312Z,4.93
2022-10-17T16:14:46.184Z,3.97
2022-10-17T16:17:17.804Z,4.00
2022-10-17T16:22:34.047Z,5.20
2022-10-17T16:25:11.056Z,4.80
2022-10-17T16:27:41.259Z,6.35
2022-10-17T16:30:11.169Z,3.33
2022-10-17T16:32:41.040Z,3.75
2022-10-17T16:35:13.455Z,3.20
2022-10-17T16:37:43.449Z,4.07
2022-10-17T16:40:13.926Z,3.47
2022-10-17T16:42:44.194Z,3.67
2022-10-17T16:45:20.603Z,6.25
2022-10-17T16:47:51.748Z,3.08
2022-10-17T16:50:21.818Z,2.95
2022-10-17T16:52:52.019Z,4.38
2022-10-17T16:55:22.288Z,3.60
2022-10-17T16:57:52.496Z,3.28
2022-10-17T17:00:22.684Z,4.13
2022-10-17T17:02:52.540Z,3.33
2022-10-17T17:05:22.282Z,6.93
2022-10-17T17:07:52.122Z,2.80
2022-10-17T17:10:22.081Z,3.35
2022-10-17T17:12:51.930Z,5.43
2022-10-17T17:15:21.921Z,5.05
2022-10-17T17:17:55.346Z,3.65
2022-10-17T17:20:25.805Z,3.50
2022-10-17T17:22:55.595Z,5.00
2022-10-17T17:25:25.400Z,3.97
2022-10-17T17:27:55.743Z,3.92
2022-10-17T17:30:25.613Z,6.85
2022-10-17T17:32:56.074Z,3.90
2022-10-17T17:35:25.996Z,3.25
2022-10-17T17:37:55.942Z,6.63
2022-10-17T17:40:25.796Z,4.93
2022-10-17T17:42:56.029Z,3.60
2022-10-17T17:45:25.909Z,3.78
2022-10-17T17:47:56.480Z,3.30
2022-10-17T17:50:26.272Z,4.20
2022-10-17T17:52:56.026Z,5.25
2022-10-17T17:55:26.279Z,5.97
2022-10-17T17:57:56.038Z,8.48
2022-10-17T18:00:26.825Z,4.95
2022-10-17T18:02:57.639Z,7.50
2022-10-17T18:05:28.604Z,3.40
2022-10-17T18:07:59.006Z,5.60
2022-10-17T18:10:30.641Z,4.18
2022-10-17T18:13:01.038Z,3.95
2022-10-17T18:15:32.369Z,3.28
2022-10-17T18:18:02.581Z,6.68
2022-10-17T18:20:32.424Z,4.88
2022-10-17T18:23:04.208Z,5.22
2022-10-17T18:25:35.584Z,3.65
2022-10-17T18:28:06.126Z,7.60
2022-10-17T18:30:39.720Z,3.88
2022-10-17T18:33:10.084Z,5.65
2022-10-17T18:35:39.890Z,4.55
2022-10-17T18:38:09.963Z,4.63
2022-10-17T18:40:40.023Z,7.47
2022-10-17T18:43:09.800Z,6.30
2022-10-17T18:45:40.505Z,4.18
2022-10-17T18:48:12.065Z,4.75
2022-10-17T18:50:42.312Z,4.70
2022-10-17T18:53:12.607Z,5.28
2022-10-17T18:55:42.372Z,8.35
2022-10-17T18:58:12.207Z,7.18
2022-10-17T19:00:41.995Z,7.90
2022-10-17T19:03:12.731Z,7.82
2022-10-17T19:05:46.261Z,4.82
2022-10-17T19:08:17.326Z,5.15
2022-10-17T19:10:48.564Z,6.13
2022-10-17T19:13:21.545Z,4.05
2022-10-17T19:15:51.996Z,4.88
2022-10-17T19:18:21.835Z,4.85
2022-10-17T19:20:54.116Z,4.25
2022-10-17T19:23:24.520Z,3.67
2022-10-17T19:25:57.064Z,3.72
2022-10-17T19:28:30.065Z,7.60
2022-10-17T19:31:00.255Z,5.22
2022-10-17T19:33:30.679Z,3.67
2022-10-17T19:36:06.760Z,7.05
2022-10-17T19:38:37.250Z,4.10
2022-10-17T19:41:12.009Z,4.90
2022-10-17T19:43:43.980Z,3.90
2022-10-17T19:46:19.693Z,5.35
2022-10-17T19:48:51.492Z,3.83
2022-10-17T19:51:27.637Z,3.08
2022-10-17T19:54:01.367Z,3.47
2022-10-17T19:56:38.819Z,3.08
2022-10-17T19:59:09.770Z,4.72
2022-10-17T20:01:40.411Z,2.95
2022-10-17T20:04:12.074Z,5.63
2022-10-17T20:06:43.039Z,5.35
2022-10-17T20:09:16.887Z,2.97
2022-10-17T20:11:50.630Z,3.83
2022-10-17T20:14:21.063Z,4.10
2022-10-17T20:16:54.068Z,4.53
2022-10-17T20:19:24.291Z,4.93
2022-10-17T20:21:54.724Z,3.25
2022-10-17T20:24:24.989Z,4.05
2022-10-17T20:26:54.848Z,9.55
2022-10-17T20:29:25.209Z,9.02
2022-10-17T20:31:55.035Z,4.00
2022-10-17T20:34:25.405Z,4.30
2022-10-17T20:36:56.566Z,4.43
2022-10-17T20:39:27.227Z,3.22
2022-10-17T20:41:57.030Z,3.30
2022-10-17T20:44:26.766Z,4.70
2022-10-17T20:47:02.164Z,5.28
2022-10-17T20:49:33.906Z,4.60
2022-10-17T20:52:04.154Z,3.95
2022-10-17T20:54:34.530Z,8.15
2022-10-17T20:57:05.537Z,5.43
2022-10-17T20:59:37.244Z,4.57
2022-10-17T21:02:07.837Z,5.00
2022-10-17T21:04:46.344Z,5.82
2022-10-17T21:07:17.286Z,4.95
2022-10-17T21:09:47.698Z,4.30
2022-10-17T21:12:26.033Z,5.22
2022-10-17T21:15:01.778Z,5.45
2022-10-17T21:17:31.539Z,5.57
2022-10-17T21:20:01.310Z,6.70
2022-10-17T21:22:31.895Z,7.40
2022-10-17T21:25:02.097Z,9.00
2022-10-17T21:27:32.231Z,8.65
2022-10-17T21:30:02.119Z,7.53
2022-10-17T21:32:50.519Z,10.98
2022-10-17T21:35:21.635Z,7.50
2022-10-17T21:37:52.596Z,6.32
2022-10-17T21:40:22.744Z,11.27
2022-10-17T21:42:52.572Z,6.93
2022-10-17T21:45:25.921Z,5.38
2022-10-17T21:48:12.350Z,6.97
2022-10-17T21:50:43.520Z,4.72
2022-10-17T21:53:13.431Z,5.43
2022-10-17T21:55:43.248Z,7.53
2022-10-17T21:58:13.041Z,7.32
2022-10-17T22:00:42.859Z,10.52
2022-10-17T22:03:16.227Z,8.55
2022-10-17T22:05:46.846Z,7.32
2022-10-17T22:08:17.883Z,8.13
2022-10-17T22:10:47.829Z,8.38
2022-10-17T22:13:18.973Z,7.85
2022-10-17T22:15:49.413Z,8.48
2022-10-17T22:18:19.214Z,8.38
2022-10-17T22:20:49.975Z,8.50
2022-10-17T22:23:19.951Z,7.80
2022-10-17T22:25:57.256Z,6.95
2022-10-17T22:28:28.281Z,7.55
2022-10-17T22:30:58.348Z,11.07
2022-10-17T22:33:28.372Z,9.68
2022-10-17T22:35:58.133Z,8.98
2022-10-17T22:38:28.467Z,8.85
2022-10-17T22:40:58.237Z,11.63
2022-10-17T22:43:28.656Z,6.07
2022-10-17T22:46:01.057Z,15.63
2022-10-17T22:48:31.591Z,9.52
2022-10-17T22:51:02.260Z,10.38
2022-10-17T22:53:32.719Z,10.50
2022-10-17T22:56:06.136Z,6.30
2022-10-17T22:58:37.195Z,6.03
2022-10-17T23:01:09.312Z,6.18
2022-10-17T23:03:39.741Z,8.15
2022-10-17T23:06:09.784Z,5.60
2022-10-17T23:08:39.655Z,6.70
2022-10-17T23:11:09.837Z,5.88
2022-10-17T23:13:41.030Z,6.00
2022-10-17T23:16:11.971Z,9.63
2022-10-17T23:18:42.499Z,11.00
2022-10-17T23:21:13.028Z,8.82
2022-10-17T23:23:43.058Z,6.40
2022-10-17T23:26:15.405Z,6.80
2022-10-17T23:28:45.797Z,11.35
2022-10-17T23:31:21.347Z,7.38
2022-10-17T23:33:52.099Z,12.25
2022-10-17T23:36:23.204Z,9.40
2022-10-17T23:38:56.434Z,6.32
2022-10-17T23:41:28.564Z,7.70
2022-10-17T23:43:58.359Z,6.43
2022-10-17T23:46:28.758Z,10.65
2022-10-17T23:48:58.627Z,7.30
2022-10-17T23:51:28.626Z,7.43
2022-10-17T23:53:58.453Z,9.05
2022-10-17T23:56:28.564Z,10.30
2022-10-17T23:58:58.338Z,13.38
